Des Lacs, ND (58733)

10:34 AM CDT on August 29, 2015 (GMT -0500)
Edgeview Estates | | Change Station
CLOSE
Current Station
Personal Weather Station
Location: Minot, ND
Elevation: 1752 ft
Nearby Weather Stations

Elev 1752 ft 48.21 °N, 101.33 °W | Updated 12 seconds ago

Partly Cloudy
Partly Cloudy
73.8 °F
Feels Like 77 °F
N
3.0
Wind Variable Wind from SSW
Gusts 6.0 mph

Today
High -- | Low -- °F
--% Chance of Precip.
Yesterday
High -- | Low -- °F
Precip. -- in
6:59 AM 8:34 PM
Full, 100% visible
Pressure 29.89 in
Visibility 2.5 miles
Clouds Mostly Cloudy 2900 ft
Overcast 3800 ft
Heat Index 77 °F
Dew Point 56 °F
Humidity 54%
Rainfall 0.00 in
Snow Depth Not available.
UV 1 out of 12
Pollen 10.60 out of 12
Air Quality Not available.
Flu Activity Not available.
METAR KMOT 291454Z 20007KT 2 1/2SM HZ BKN029 OVC038 21/12 A2990 RMK AO2 SLP121 T02060117 51002
Pressure 29.89 in
Visibility 2.5 miles
Clouds Mostly Cloudy 2900 ft
Overcast 3800 ft
Heat Index 77 °F
Dew Point 56 °F
Humidity 54%
Rainfall 0.00 in
Snow Depth Not available.
UV 1 out of 12
Pollen 10.60 out of 12
Air Quality Not available.
Flu Activity Not available.
METAR KMOT 291454Z 20007KT 2 1/2SM HZ BKN029 OVC038 21/12 A2990 RMK AO2 SLP121 T02060117 51002

10-Day Weather Forecast

×

Almanac

Astronomy

Aug. 29, 2015 Rise Set
Actual Time
Civil Twilight
Nautical Twilight
Astronomical Twilight
Moon
Length of Visible Light
Length of Day
Tomorrow will be .
, % of the Moon is Illuminated

Today's Extremes

State Highs State Lows

Community

WunderPhotos

Upload Photos

1,850,696 photos uploaded!

WunderBlogs® & News

Nearby

Air Quality

  Air Quality AQ Index Pollutant
Not available.

Snow Depth

Station Depth Elevation

Earthquake Activity

City Distance Mag. Time & Date
Minimum magnitude displayed is 2.5.

Coastal Water Temperatures

Place Temperature

Stations

Nearby Weather Stations

Station Location Temp. Windchill Dew Point Humidity Wind Precip. Elev Updated Type